createdAt,value
2022-09-02T00:01:12.716Z,100882.16
2022-09-02T00:03:39.845Z,100876.59
2022-09-02T00:06:06.586Z,100880.13
2022-09-02T00:08:33.386Z,100885.31
2022-09-02T00:11:01.319Z,100877.75
2022-09-02T00:13:29.734Z,100885.31
2022-09-02T00:15:56.322Z,100874.38
2022-09-02T00:18:23.966Z,100875.75
2022-09-02T00:20:50.963Z,100871.22
2022-09-02T00:23:17.976Z,100858.81
2022-09-02T00:25:45.493Z,100860.72
2022-09-02T00:28:14.481Z,100862.34
2022-09-02T00:30:43.330Z,100863.19
2022-09-02T00:33:11.740Z,100862.69
2022-09-02T00:35:38.840Z,100863.97
2022-09-02T00:38:06.548Z,100851.78
2022-09-02T00:40:34.039Z,100851.94
2022-09-02T00:43:01.480Z,100849.59
2022-09-02T00:45:28.274Z,100849.25
2022-09-02T00:47:55.528Z,100848.13
2022-09-02T00:50:29.845Z,100854.13
2022-09-02T00:53:03.296Z,100849.56
2022-09-02T00:55:34.824Z,100842.28
2022-09-02T00:58:09.486Z,100853.09
2022-09-02T01:00:42.401Z,100850.59
2022-09-02T01:03:12.914Z,100849.47
2022-09-02T01:05:45.900Z,100842.22
2022-09-02T01:08:15.881Z,100838.72
2022-09-02T01:10:43.291Z,100840.22
2022-09-02T01:13:17.532Z,100847.00
2022-09-02T01:15:55.570Z,100843.63
2022-09-02T01:18:28.961Z,100847.66
2022-09-02T01:20:58.176Z,100844.84
2022-09-02T01:23:25.401Z,100847.34
2022-09-02T01:25:52.587Z,100846.84
2022-09-02T01:28:19.383Z,100849.38
2022-09-02T01:30:49.977Z,100842.28
2022-09-02T01:33:18.700Z,100847.44
2022-09-02T01:35:46.175Z,100847.91
2022-09-02T01:38:13.337Z,100838.72
2022-09-02T01:40:41.079Z,100837.38
2022-09-02T01:43:14.628Z,100838.22
2022-09-02T01:45:43.566Z,100832.44
2022-09-02T01:48:12.664Z,100837.03
2022-09-02T01:50:47.015Z,100828.06
2022-09-02T01:53:14.822Z,100828.66
2022-09-02T01:55:42.096Z,100828.03
2022-09-02T01:58:09.050Z,100832.03
2022-09-02T02:00:36.344Z,100825.03
2022-09-02T02:03:03.674Z,100823.66
2022-09-02T02:05:30.928Z,100826.25
2022-09-02T02:07:58.540Z,100821.00
2022-09-02T02:10:25.873Z,100818.97
2022-09-02T02:12:52.735Z,100814.59
2022-09-02T02:15:21.769Z,100825.59
2022-09-02T02:17:49.046Z,100820.25
2022-09-02T02:20:17.986Z,100814.47
2022-09-02T02:22:45.008Z,100809.50
2022-09-02T02:25:14.825Z,100815.06
2022-09-02T02:27:43.813Z,100817.25
2022-09-02T02:30:13.191Z,100823.78
2022-09-02T02:32:40.388Z,100823.09
2022-09-02T02:35:07.759Z,100812.31
2022-09-02T02:37:35.379Z,100814.00
2022-09-02T02:40:02.193Z,100812.56
2022-09-02T02:42:29.973Z,100812.44
2022-09-02T02:44:56.696Z,100814.50
2022-09-02T02:47:23.414Z,100811.34
2022-09-02T02:49:50.085Z,100814.84
2022-09-02T02:52:16.893Z,100812.34
2022-09-02T02:54:43.553Z,100807.38
2022-09-02T02:57:11.071Z,100822.25
2022-09-02T02:59:38.097Z,100811.13
2022-09-02T03:02:06.885Z,100819.97
2022-09-02T03:04:35.437Z,100811.72
2022-09-02T03:07:02.999Z,100813.41
2022-09-02T03:09:30.703Z,100814.63
2022-09-02T03:11:57.829Z,100804.59
2022-09-02T03:14:26.129Z,100810.41
2022-09-02T03:16:53.068Z,100805.44
2022-09-02T03:19:20.054Z,100801.56
2022-09-02T03:21:46.756Z,100807.00
2022-09-02T03:24:13.583Z,100799.47
2022-09-02T03:26:42.903Z,100799.25
2022-09-02T03:29:11.299Z,100795.38
2022-09-02T03:31:38.410Z,100796.00
2022-09-02T03:34:06.169Z,100795.38
2022-09-02T03:36:38.648Z,100798.63
2022-09-02T03:39:10.215Z,100796.72
2022-09-02T03:41:42.494Z,100793.19
2022-09-02T03:44:11.595Z,100805.44
2022-09-02T03:46:39.244Z,100798.19
2022-09-02T03:49:08.478Z,100794.06
2022-09-02T03:51:40.751Z,100788.00
2022-09-02T03:54:10.227Z,100793.19
2022-09-02T03:56:37.870Z,100792.72
2022-09-02T03:59:05.316Z,100793.94
2022-09-02T04:01:34.390Z,100781.69
2022-09-02T04:04:05.967Z,100781.31
2022-09-02T04:06:34.297Z,100782.16
2022-09-02T04:09:04.545Z,100781.31
2022-09-02T04:11:32.492Z,100789.22
2022-09-02T04:13:59.908Z,100783.75
2022-09-02T04:16:29.194Z,100779.16
2022-09-02T04:19:01.912Z,100775.63
2022-09-02T04:21:31.801Z,100780.13
2022-09-02T04:23:58.630Z,100786.78
2022-09-02T04:26:25.759Z,100776.13
2022-09-02T04:28:55.607Z,100778.31
2022-09-02T04:31:25.753Z,100776.25
2022-09-02T04:33:54.076Z,100780.47
2022-09-02T04:36:22.310Z,100765.22
2022-09-02T04:38:53.361Z,100772.16
2022-09-02T04:41:27.932Z,100768.00
2022-09-02T04:43:59.712Z,100775.41
2022-09-02T04:46:34.629Z,100765.22
2022-09-02T04:49:04.845Z,100773.72
2022-09-02T04:51:32.966Z,100778.19
2022-09-02T04:54:01.906Z,100769.34
2022-09-02T04:56:32.233Z,100779.53
2022-09-02T04:59:00.669Z,100774.56
2022-09-02T05:01:32.450Z,100779.03
2022-09-02T05:04:09.579Z,100776.34
2022-09-02T05:06:44.034Z,100770.44
2022-09-02T05:09:15.410Z,100775.03
2022-09-02T05:11:42.551Z,100780.97
2022-09-02T05:14:09.792Z,100770.56
2022-09-02T05:16:40.464Z,100775.63
2022-09-02T05:19:13.642Z,100787.97
2022-09-02T05:21:46.927Z,100777.34
2022-09-02T05:24:26.266Z,100776.75
2022-09-02T05:26:54.983Z,100776.47
2022-09-02T05:29:23.642Z,100773.59
2022-09-02T05:31:50.951Z,100780.25
2022-09-02T05:34:17.932Z,100781.69
2022-09-02T05:36:45.569Z,100780.00
2022-09-02T05:39:12.443Z,100779.16
2022-09-02T05:41:39.590Z,100780.00
2022-09-02T05:44:08.459Z,100780.38
2022-09-02T05:46:36.133Z,100777.84
2022-09-02T05:49:07.228Z,100781.81
2022-09-02T05:51:44.906Z,100783.66
2022-09-02T05:54:19.838Z,100784.84
2022-09-02T05:56:51.442Z,100787.00
2022-09-02T05:59:21.089Z,100786.91
2022-09-02T06:01:48.929Z,100776.75
2022-09-02T06:04:15.993Z,100765.22
2022-09-02T06:06:43.367Z,100778.56
2022-09-02T06:09:13.011Z,100773.81
2022-09-02T06:11:44.565Z,100780.00
2022-09-02T06:14:18.996Z,100780.47
2022-09-02T06:16:46.641Z,100767.78
2022-09-02T06:19:21.669Z,100779.50
2022-09-02T06:21:52.972Z,100775.78
2022-09-02T06:24:20.730Z,100780.00
2022-09-02T06:26:51.108Z,100777.69
2022-09-02T06:29:26.002Z,100775.00
2022-09-02T06:31:54.580Z,100775.88
2022-09-02T06:34:27.271Z,100775.75
2022-09-02T06:36:57.493Z,100776.09
2022-09-02T06:39:25.915Z,100779.41
2022-09-02T06:41:55.823Z,100786.31
2022-09-02T06:44:24.455Z,100777.31
2022-09-02T06:46:57.453Z,100782.16
2022-09-02T06:49:26.233Z,100777.88
2022-09-02T06:51:56.981Z,100777.06
2022-09-02T06:54:29.309Z,100777.06
2022-09-02T06:57:06.573Z,100777.75
2022-09-02T06:59:36.416Z,100775.09
2022-09-02T07:02:04.115Z,100776.69
2022-09-02T07:05:10.270Z,100773.16
2022-09-02T07:07:40.056Z,100770.38
2022-09-02T07:10:13.285Z,100777.03
2022-09-02T07:12:44.418Z,100765.16
2022-09-02T07:15:14.602Z,100774.13
2022-09-02T07:17:42.691Z,100768.06
2022-09-02T07:20:14.362Z,100772.56
2022-09-02T07:25:22.857Z,100767.41
2022-09-02T07:27:52.118Z,100765.25
2022-09-02T07:30:19.550Z,100766.09
2022-09-02T07:32:49.868Z,100773.97
2022-09-02T07:35:20.251Z,100763.91
2022-09-02T07:37:47.753Z,100759.53
2022-09-02T07:40:16.235Z,100768.50
2022-09-02T07:42:43.765Z,100767.28
2022-09-02T07:45:12.894Z,100769.34
2022-09-02T07:47:41.433Z,100769.19
2022-09-02T07:50:20.290Z,100768.78
2022-09-02T07:52:54.570Z,100765.25
2022-09-02T07:55:23.615Z,100772.03
2022-09-02T07:57:52.371Z,100767.66
2022-09-02T08:00:20.611Z,100757.34
2022-09-02T08:02:50.653Z,100752.72
2022-09-02T08:05:23.600Z,100750.84
2022-09-02T08:07:50.897Z,100748.38
2022-09-02T08:10:20.150Z,100755.59
2022-09-02T08:12:47.795Z,100747.41
2022-09-02T08:15:15.671Z,100749.72
2022-09-02T08:17:44.230Z,100745.22
2022-09-02T08:20:12.773Z,100740.72
2022-09-02T08:22:40.426Z,100747.66
2022-09-02T08:25:08.287Z,100754.41
2022-09-02T08:27:36.594Z,100752.03
2022-09-02T08:30:11.987Z,100754.84
2022-09-02T08:32:40.463Z,100751.00
2022-09-02T08:35:10.732Z,100758.28
2022-09-02T08:37:38.395Z,100749.25
2022-09-02T08:40:13.192Z,100756.22
2022-09-02T08:42:53.371Z,100748.59
2022-09-02T08:45:28.459Z,100748.69
2022-09-02T08:48:12.724Z,100743.47
2022-09-02T08:50:44.808Z,100749.09
2022-09-02T08:53:23.845Z,100753.84
2022-09-02T08:55:55.969Z,100756.13
2022-09-02T08:58:33.170Z,100742.78
2022-09-02T09:01:06.238Z,100737.94
2022-09-02T09:04:10.873Z,100744.09
2022-09-02T09:07:05.507Z,100741.75
2022-09-02T09:10:00.888Z,100741.56
2022-09-02T09:12:39.858Z,100737.47
2022-09-02T09:15:31.753Z,100732.31
2022-09-02T09:18:00.655Z,100727.91
2022-09-02T09:20:33.825Z,100728.59
2022-09-02T09:23:05.969Z,100729.09
2022-09-02T09:25:32.886Z,100730.03
2022-09-02T09:28:00.775Z,100711.59
2022-09-02T09:30:29.180Z,100713.69
2022-09-02T09:32:59.839Z,100718.31
2022-09-02T09:35:34.365Z,100715.38
2022-09-02T09:38:13.414Z,100718.25
2022-09-02T09:40:40.511Z,100712.31
2022-09-02T09:43:14.786Z,100708.13
2022-09-02T09:45:43.984Z,100705.63
2022-09-02T09:48:17.168Z,100697.00
2022-09-02T09:50:48.542Z,100697.63
2022-09-02T09:53:18.996Z,100701.53
2022-09-02T09:56:15.654Z,100704.38
2022-09-02T09:58:44.516Z,100698.50
2022-09-02T10:01:18.149Z,100694.81
2022-09-02T10:03:54.417Z,100704.28
2022-09-02T10:06:43.506Z,100705.41
2022-09-02T10:09:19.704Z,100687.53
2022-09-02T10:12:12.355Z,100703.28
2022-09-02T10:14:48.150Z,100694.59
2022-09-02T10:17:34.402Z,100690.13
2022-09-02T10:20:11.384Z,100696.03
2022-09-02T10:22:59.277Z,100696.63
2022-09-02T10:25:33.226Z,100688.25
2022-09-02T10:28:04.195Z,100693.31
2022-09-02T10:30:52.236Z,100689.91
2022-09-02T10:33:54.117Z,100678.72
2022-09-02T10:36:28.626Z,100671.19
2022-09-02T10:39:06.086Z,100672.06
2022-09-02T10:44:33.785Z,100665.44
2022-09-02T10:47:04.289Z,100664.38
2022-09-02T10:50:08.598Z,100668.31
2022-09-02T10:52:59.468Z,100661.97
2022-09-02T10:56:00.318Z,100651.03
2022-09-02T10:58:54.435Z,100647.16
2022-09-02T11:01:46.492Z,100651.91
2022-09-02T11:04:42.005Z,100645.19
2022-09-02T11:07:17.025Z,100654.44
2022-09-02T11:09:49.186Z,100651.66
2022-09-02T11:12:22.108Z,100660.63
2022-09-02T11:15:12.865Z,100646.00
2022-09-02T11:18:20.206Z,100637.59
2022-09-02T11:21:09.485Z,100642.94
2022-09-02T11:23:51.426Z,100647.16
2022-09-02T11:26:24.817Z,100634.78
2022-09-02T11:29:01.469Z,100641.53
2022-09-02T11:31:38.896Z,100636.50
2022-09-02T11:34:35.344Z,100629.75
2022-09-02T11:37:09.460Z,100639.00
2022-09-02T11:40:11.724Z,100635.94
2022-09-02T11:43:02.472Z,100628.63
2022-09-02T11:45:56.969Z,100622.44
2022-09-02T11:48:45.511Z,100618.50
2022-09-02T11:51:30.512Z,100621.00
2022-09-02T11:54:00.799Z,100611.97
2022-09-02T11:56:31.076Z,100608.63
2022-09-02T11:58:57.746Z,100600.47
2022-09-02T12:01:47.493Z,100603.84
2022-09-02T12:07:09.469Z,100606.06
2022-09-02T12:09:51.786Z,100588.66
2022-09-02T12:12:38.225Z,100595.03
2022-09-02T12:15:05.345Z,100592.75
2022-09-02T12:17:38.071Z,100590.19
2022-09-02T12:20:09.007Z,100588.22
2022-09-02T12:22:38.881Z,100580.06
2022-09-02T12:25:26.943Z,100575.59
2022-09-02T12:28:21.759Z,100588.16
2022-09-02T12:31:02.049Z,100595.72
2022-09-02T12:33:40.715Z,100582.25
2022-09-02T12:36:09.003Z,100574.34
2022-09-02T12:38:40.966Z,100577.16
2022-09-02T12:41:28.898Z,100576.66
2022-09-02T12:44:22.816Z,100577.75
2022-09-02T12:46:55.560Z,100574.97
2022-09-02T12:49:38.961Z,100572.13
2022-09-02T12:52:11.603Z,100564.50
2022-09-02T12:54:38.935Z,100560.34
2022-09-02T12:57:07.715Z,100562.84
2022-09-02T12:59:38.276Z,100562.00
2022-09-02T13:02:13.999Z,100551.94
2022-09-02T13:04:56.709Z,100552.50
2022-09-02T13:07:56.836Z,100559.81
2022-09-02T13:10:51.389Z,100547.63
2022-09-02T13:13:36.323Z,100544.69
2022-09-02T13:16:30.529Z,100550.22
2022-09-02T13:19:03.220Z,100549.34
2022-09-02T13:21:56.186Z,100545.94
2022-09-02T13:25:00.956Z,100533.56
2022-09-02T13:28:02.883Z,100531.38
2022-09-02T13:30:51.473Z,100537.97
2022-09-02T13:33:19.152Z,100533.47
2022-09-02T13:35:46.237Z,100529.28
2022-09-02T13:38:15.612Z,100533.75
2022-09-02T13:40:46.179Z,100526.47
2022-09-02T13:43:13.008Z,100521.34
2022-09-02T13:45:40.014Z,100530.25
2022-09-02T13:48:25.038Z,100520.91
2022-09-02T13:50:54.946Z,100522.25
2022-09-02T13:56:25.539Z,100521.63
2022-09-02T13:58:56.658Z,100509.44
2022-09-02T14:01:35.606Z,100507.50
2022-09-02T14:04:11.645Z,100506.38
2022-09-02T14:06:42.045Z,100506.63
2022-09-02T14:09:21.136Z,100497.06
2022-09-02T14:11:49.514Z,100503.47
2022-09-02T14:14:19.840Z,100504.34
2022-09-02T14:16:46.604Z,100498.28
2022-09-02T14:19:16.340Z,100499.69
2022-09-02T14:21:50.894Z,100498.56
2022-09-02T14:24:26.772Z,100494.50
2022-09-02T14:26:55.651Z,100492.28
2022-09-02T14:29:23.713Z,100492.31
2022-09-02T14:32:05.577Z,100488.50
2022-09-02T14:34:46.070Z,100487.34
2022-09-02T14:37:26.679Z,100475.59
2022-09-02T14:40:08.355Z,100484.59
2022-09-02T14:42:56.587Z,100475.59
2022-09-02T14:45:25.637Z,100480.06
2022-09-02T14:47:52.832Z,100474.47
2022-09-02T14:50:21.884Z,100474.47
2022-09-02T14:52:53.576Z,100463.19
2022-09-02T14:55:39.049Z,100469.88
2022-09-02T14:58:05.674Z,100471.44
2022-09-02T15:00:34.704Z,100468.03
2022-09-02T15:03:01.752Z,100460.41
2022-09-02T15:05:28.468Z,100460.66
2022-09-02T15:07:55.133Z,100462.84
2022-09-02T15:10:22.073Z,100450.53
2022-09-02T15:12:53.641Z,100445.81
2022-09-02T15:15:20.826Z,100450.22
2022-09-02T15:17:47.523Z,100443.75
2022-09-02T15:20:15.496Z,100447.13
2022-09-02T15:22:43.218Z,100439.72
2022-09-02T15:25:10.038Z,100444.56
2022-09-02T15:27:37.267Z,100439.59
2022-09-02T15:30:05.730Z,100445.97
2022-09-02T15:32:32.676Z,100443.16
2022-09-02T15:34:59.583Z,100434.69
2022-09-02T15:37:27.521Z,100430.72
2022-09-02T15:39:54.403Z,100434.94
2022-09-02T15:42:21.219Z,100428.56
2022-09-02T15:44:47.914Z,100425.19
2022-09-02T15:47:15.092Z,100421.22
2022-09-02T15:49:41.742Z,100420.41
2022-09-02T15:52:08.707Z,100425.19
2022-09-02T15:54:35.469Z,100436.16
2022-09-02T15:57:02.235Z,100420.63
2022-09-02T15:59:29.080Z,100422.84
2022-09-02T16:01:57.209Z,100420.00
2022-09-02T16:04:24.643Z,100418.19
2022-09-02T16:06:54.897Z,100411.56
2022-09-02T16:09:22.198Z,100417.19
2022-09-02T16:11:51.808Z,100409.50
2022-09-02T16:14:21.049Z,100405.19
2022-09-02T16:16:49.674Z,100403.50
2022-09-02T16:19:20.291Z,100401.59
2022-09-02T16:21:47.725Z,100398.47
2022-09-02T16:24:14.716Z,100395.13
2022-09-02T16:26:42.128Z,100402.06
2022-09-02T16:29:15.887Z,100403.94
2022-09-02T16:31:47.747Z,100394.66
2022-09-02T16:34:24.095Z,100396.84
2022-09-02T16:36:51.460Z,100389.63
2022-09-02T16:39:19.726Z,100397.00
2022-09-02T16:41:49.193Z,100395.84
2022-09-02T16:44:18.896Z,100385.41
2022-09-02T16:46:47.363Z,100391.97
2022-09-02T16:49:18.377Z,100392.00
2022-09-02T16:51:46.165Z,100387.53
2022-09-02T16:54:17.513Z,100378.16
2022-09-02T16:56:44.701Z,100387.16
2022-09-02T16:59:12.767Z,100389.66
2022-09-02T17:01:40.520Z,100388.84
2022-09-02T17:04:08.982Z,100387.44
2022-09-02T17:06:41.291Z,100383.03
2022-09-02T17:09:09.201Z,100384.16
2022-09-02T17:11:39.478Z,100398.22
2022-09-02T17:14:12.262Z,100388.59
2022-09-02T17:16:48.342Z,100387.53
2022-09-02T17:19:21.187Z,100382.19
2022-09-02T17:21:54.261Z,100378.84
2022-09-02T17:24:23.837Z,100380.22
2022-09-02T17:26:54.200Z,100382.72
2022-09-02T17:32:09.589Z,100391.47
2022-09-02T17:34:37.047Z,100390.94
2022-09-02T17:37:05.047Z,100386.97
2022-09-02T17:39:33.771Z,100390.34
2022-09-02T17:42:00.666Z,100387.63
2022-09-02T17:44:35.992Z,100390.50
2022-09-02T17:47:05.945Z,100387.69
2022-09-02T17:49:36.174Z,100393.66
2022-09-02T17:52:07.563Z,100397.94
2022-09-02T17:54:36.289Z,100392.75
2022-09-02T17:57:33.330Z,100392.28
2022-09-02T18:00:06.647Z,100387.56
2022-09-02T18:03:03.149Z,100387.97
2022-09-02T18:05:53.245Z,100384.69
2022-09-02T18:08:39.522Z,100383.59
2022-09-02T18:11:07.726Z,100388.44
2022-09-02T18:13:47.617Z,100387.13
2022-09-02T18:16:32.958Z,100378.22
2022-09-02T18:19:25.238Z,100383.03
2022-09-02T18:22:28.885Z,100382.00
2022-09-02T18:25:27.370Z,100381.47
2022-09-02T18:28:03.871Z,100380.41
2022-09-02T18:30:41.548Z,100379.31
2022-09-02T18:33:20.878Z,100380.44
2022-09-02T18:36:11.042Z,100386.09
2022-09-02T18:38:48.887Z,100386.69
2022-09-02T18:41:22.881Z,100378.28
2022-09-02T18:44:14.982Z,100377.16
2022-09-02T18:46:58.399Z,100375.47
2022-09-02T18:49:28.447Z,100382.47
2022-09-02T18:52:00.303Z,100382.19
2022-09-02T18:54:34.011Z,100384.72
2022-09-02T18:57:05.616Z,100381.69
2022-09-02T19:00:07.460Z,100389.00
2022-09-02T19:03:03.667Z,100386.22
2022-09-02T19:05:33.454Z,100385.66
2022-09-02T19:08:24.696Z,100385.38
2022-09-02T19:11:06.819Z,100389.00
2022-09-02T19:13:55.511Z,100392.03
2022-09-02T19:16:25.273Z,100390.38
2022-09-02T19:18:52.284Z,100397.69
2022-09-02T19:21:30.025Z,100390.66
2022-09-02T19:23:56.873Z,100395.41
2022-09-02T19:26:24.128Z,100392.88
2022-09-02T19:28:52.088Z,100400.72
2022-09-02T19:31:21.909Z,100400.72
2022-09-02T19:33:52.603Z,100391.19
2022-09-02T19:36:22.989Z,100401.53
2022-09-02T19:38:54.089Z,100400.97
2022-09-02T19:41:21.028Z,100391.72
2022-09-02T19:43:47.881Z,100404.63
2022-09-02T19:46:41.478Z,100406.88
2022-09-02T19:49:01.270Z,100398.72
2022-09-02T19:51:27.949Z,100399.03
2022-09-02T19:53:56.427Z,100397.91
2022-09-02T19:56:23.088Z,100404.06
2022-09-02T19:58:49.816Z,100400.44
2022-09-02T20:01:16.456Z,100402.97
2022-09-02T20:03:43.195Z,100398.75
2022-09-02T20:06:09.823Z,100402.97
2022-09-02T20:08:36.506Z,100399.59
2022-09-02T20:11:05.190Z,100396.78
2022-09-02T20:13:41.021Z,100388.97
2022-09-02T20:16:20.256Z,100392.91
2022-09-02T20:18:48.711Z,100391.81
2022-09-02T20:21:43.868Z,100394.00
2022-09-02T20:24:14.618Z,100390.66
2022-09-02T20:26:58.853Z,100391.81
2022-09-02T20:29:39.441Z,100378.34
2022-09-02T20:32:53.881Z,100389.84
2022-09-02T20:35:58.473Z,100400.22
2022-09-02T20:39:03.743Z,100393.47
2022-09-02T20:42:16.580Z,100389.56
2022-09-02T20:45:10.418Z,100386.22
2022-09-02T20:48:25.085Z,100385.66
2022-09-02T20:51:05.441Z,100392.94
2022-09-02T20:53:50.808Z,100388.75
2022-09-02T20:56:26.637Z,100394.63
2022-09-02T20:59:02.231Z,100389.03
2022-09-02T21:01:35.923Z,100384.56
2022-09-02T21:04:28.915Z,100379.47
2022-09-02T21:07:19.899Z,100378.38
2022-09-02T21:09:51.000Z,100376.69
2022-09-02T21:12:41.162Z,100374.44
2022-09-02T21:15:08.719Z,100382.00
2022-09-02T21:17:38.000Z,100378.66
2022-09-02T21:20:38.063Z,100376.97
2022-09-02T21:23:11.798Z,100379.78
2022-09-02T21:25:52.723Z,100385.97
2022-09-02T21:28:26.332Z,100376.97
2022-09-02T21:30:59.860Z,100380.06
2022-09-02T21:33:28.896Z,100371.66
2022-09-02T21:35:58.820Z,100373.91
2022-09-02T21:38:38.282Z,100378.94
2022-09-02T21:41:07.902Z,100369.97
2022-09-02T21:43:58.927Z,100382.59
2022-09-02T21:46:50.119Z,100378.38
2022-09-02T21:49:54.039Z,100378.38
2022-09-02T21:52:29.819Z,100379.50
2022-09-02T21:55:19.144Z,100382.25
2022-09-02T21:58:10.886Z,100385.66
2022-09-02T22:00:45.807Z,100385.88
2022-09-02T22:03:41.386Z,100376.59
2022-09-02T22:06:31.263Z,100379.41
2022-09-02T22:09:10.814Z,100375.22
2022-09-02T22:11:43.272Z,100368.19
2022-09-02T22:14:18.742Z,100370.75
2022-09-02T22:16:51.538Z,100364.84
2022-09-02T22:19:18.773Z,100361.22
2022-09-02T22:21:53.370Z,100359.50
2022-09-02T22:24:29.018Z,100362.06
2022-09-02T22:27:06.234Z,100364.28
2022-09-02T22:29:46.256Z,100364.81
2022-09-02T22:32:17.354Z,100355.34
2022-09-02T22:34:50.574Z,100350.84
2022-09-02T22:37:24.288Z,100357.28
2022-09-02T22:39:53.993Z,100354.47
2022-09-02T22:42:33.163Z,100353.06
2022-09-02T22:45:24.651Z,100359.22
2022-09-02T22:48:17.579Z,100356.97
2022-09-02T22:51:10.403Z,100356.41
2022-09-02T22:53:37.247Z,100353.34
2022-09-02T22:56:08.037Z,100349.41
2022-09-02T22:59:26.440Z,100350.78
2022-09-02T23:02:05.609Z,100350.78
2022-09-02T23:04:54.984Z,100344.63
2022-09-02T23:07:24.017Z,100346.00
2022-09-02T23:09:55.980Z,100347.94
2022-09-02T23:13:05.340Z,100352.16
2022-09-02T23:15:59.844Z,100350.19
2022-09-02T23:18:44.716Z,100346.28
2022-09-02T23:21:26.290Z,100349.09
2022-09-02T23:24:19.727Z,100354.41
2022-09-02T23:27:03.479Z,100349.03
2022-09-02T23:29:31.236Z,100341.47
2022-09-02T23:32:31.885Z,100345.69
2022-09-02T23:35:20.366Z,100345.63
2022-09-02T23:38:02.008Z,100346.16
2022-09-02T23:40:38.261Z,100345.63
2022-09-02T23:43:05.096Z,100338.31
2022-09-02T23:45:33.757Z,100340.81
2022-09-02T23:48:41.882Z,100343.91
2022-09-02T23:51:22.902Z,100332.97
2022-09-02T23:54:05.010Z,100332.97
2022-09-02T23:56:41.615Z,100331.59
2022-09-02T23:59:24.322Z,100329.03
